Decoded Metar for KEKX (ELIZABETH in KY, USA) (IATA:EKX) | Meteo·Mobile Aviation Weather
aviador You're here:

KEKX Decoded Metar

ELIZABETH in KY, USA
Report Time2018-11-16 17:55:00
UTC Time2018-11-16 17:57:55
Flight Rules vfr VFR
Wind280° at 07 kt
W.Decomp.*RWY 23: 4.2 kt HW 5.6 kt RCW
W.Rank280° ranks 14
Current wind is below 280° avg. (7.1)
Visibility9999 m
Phenomena:N/A
Clouds:Scattered 013 Hf
Expected CloudBase > 1,200 ft AGL from Temp-Dew spread
CeilingNone
Temp05°C (ISA -9)
Dew Point02°C (81% RH)
AAT0.8°C
QNH1019 hPa
Density Alt-374 ft
Elevation755 ft
Report Wrong Elevation
Raw Report
METAR KEKX 161755Z AUTO 28007KT 10SM SCT013 05/02 A3009 RMK AO2 60010
T00540019 10054 21022=

Extra information for KEKX:More info

Airport Information Weather charts Add Link Nearby Venues Social comments

AIRNAV info for KEKX